Time;durP1;ratioP1;P1;durP2;ratioP2;P2;SDS_P1;SDS_P2;PMS_P1;PMS_P2;Temp;Humidity;BMP_temperature;BMP_pressure;BME280_temperature;BME280_humidity;BME280_pressure;Samples;Min_cycle;Max_cycle;Signal;HPM_P1;HPM_P2
2023/11/20 00:01:08;;;;;;;6.53;5.90;;;;;;;;;;4986932;28;20479;-85
2023/11/20 00:03:35;;;;;;;5.10;4.17;;;;;;;;;;4991684;28;20447;-88
2023/11/20 00:06:01;;;;;;;5.27;4.43;;;;;;;;;;4987647;28;20494;-84
2023/11/20 00:08:28;;;;;;;8.30;4.03;;;;;;;;;;4987307;28;20475;-86
2023/11/20 00:10:54;;;;;;;5.70;4.50;;;;;;;;;;4992230;28;20475;-85
2023/11/20 00:13:20;;;;;;;6.00;4.63;;;;;;;;;;4983194;28;20489;-86
2023/11/20 00:15:48;;;;;;;6.30;5.13;;;;;;;;;;4991032;28;20971;-86
2023/11/20 00:18:15;;;;;;;5.43;4.77;;;;;;;;;;4993071;28;20487;-86
2023/11/20 00:20:41;;;;;;;6.87;5.07;;;;;;;;;;4993259;28;20546;-85
2023/11/20 00:23:07;;;;;;;6.03;4.90;;;;;;;;;;4988570;28;20492;-86
2023/11/20 00:25:34;;;;;;;4.83;4.43;;;;;;;;;;4981813;28;20524;-85
2023/11/20 00:28:00;;;;;;;7.13;4.77;;;;;;;;;;4982928;28;20467;-86
2023/11/20 00:30:27;;;;;;;7.53;5.17;;;;;;;;;;4981637;28;20483;-85
2023/11/20 00:32:55;;;;;;;5.60;4.97;;;;;;;;;;4988672;28;20473;-88
2023/11/20 00:35:21;;;;;;;9.07;5.50;;;;;;;;;;4992737;28;20592;-87
2023/11/20 00:37:47;;;;;;;6.63;6.03;;;;;;;;;;4987694;28;20484;-86
2023/11/20 00:40:14;;;;;;;7.90;5.50;;;;;;;;;;4986665;28;20491;-87
2023/11/20 00:42:40;;;;;;;7.60;5.67;;;;;;;;;;4987792;28;20451;-86
2023/11/20 00:45:08;;;;;;;6.43;5.53;;;;;;;;;;4986202;28;20479;-87
2023/11/20 00:47:34;;;;;;;6.10;5.50;;;;;;;;;;4985290;28;20911;-86
2023/11/20 00:50:02;;;;;;;7.00;5.23;;;;;;;;;;4989734;28;20440;-87
2023/11/20 00:52:29;;;;;;;8.00;5.97;;;;;;;;;;4988775;28;20590;-87
2023/11/20 00:54:56;;;;;;;8.20;6.57;;;;;;;;;;4995096;28;20514;-88
2023/11/20 00:57:22;;;;;;;10.83;6.27;;;;;;;;;;4997974;28;20453;-84
2023/11/20 00:59:49;;;;;;;7.77;6.53;;;;;;;;;;4992515;28;20520;-86
2023/11/20 01:02:16;;;;;;;6.83;5.57;;;;;;;;;;4997122;28;20469;-85
2023/11/20 01:04:42;;;;;;;9.17;6.70;;;;;;;;;;4994852;28;20460;-85
2023/11/20 01:07:10;;;;;;;10.07;5.77;;;;;;;;;;4992737;28;20495;-87
2023/11/20 01:09:36;;;;;;;10.10;5.97;;;;;;;;;;4994674;28;20479;-85
2023/11/20 01:12:03;;;;;;;7.60;6.07;;;;;;;;;;4989896;28;20484;-85
2023/11/20 01:14:29;;;;;;;8.20;6.33;;;;;;;;;;4993372;28;20499;-85
2023/11/20 01:16:56;;;;;;;8.90;5.80;;;;;;;;;;4988732;28;20484;-86
2023/11/20 01:19:22;;;;;;;10.40;6.60;;;;;;;;;;4987610;28;20531;-86
2023/11/20 01:21:49;;;;;;;7.87;6.53;;;;;;;;;;4995437;28;20843;-85
2023/11/20 01:24:17;;;;;;;7.67;6.30;;;;;;;;;;4996542;28;20519;-86
2023/11/20 01:26:43;;;;;;;8.50;7.40;;;;;;;;;;4992947;28;20471;-84
2023/11/20 01:29:10;;;;;;;14.30;6.83;;;;;;;;;;4983838;28;20499;-85
2023/11/20 01:31:36;;;;;;;14.80;6.50;;;;;;;;;;4984903;28;20492;-85
2023/11/20 01:34:03;;;;;;;10.70;7.00;;;;;;;;;;4988463;28;20523;-86
2023/11/20 01:36:29;;;;;;;6.60;5.90;;;;;;;;;;4990867;28;21048;-86
2023/11/20 01:38:57;;;;;;;6.07;5.47;;;;;;;;;;4991347;28;20496;-85
2023/11/20 01:41:24;;;;;;;7.47;5.63;;;;;;;;;;5001607;28;20479;-86
2023/11/20 01:43:52;;;;;;;5.30;4.80;;;;;;;;;;4983753;28;20524;-83
2023/11/20 01:46:19;;;;;;;7.10;6.23;;;;;;;;;;4987116;28;20497;-84
2023/11/20 01:48:46;;;;;;;7.07;5.30;;;;;;;;;;4988139;28;20914;-84
2023/11/20 01:51:12;;;;;;;6.27;4.80;;;;;;;;;;4985308;28;20547;-85
2023/11/20 01:53:39;;;;;;;7.50;4.10;;;;;;;;;;4991177;28;20462;-86
2023/11/20 01:56:06;;;;;;;6.80;4.47;;;;;;;;;;4991586;28;20472;-85
2023/11/20 01:58:36;;;;;;;8.10;4.80;;;;;;;;;;4990567;28;20461;-86
2023/11/20 02:01:03;;;;;;;6.80;5.73;;;;;;;;;;4990317;28;20490;-84
2023/11/20 02:03:29;;;;;;;7.30;5.27;;;;;;;;;;4993733;28;20851;-85
2023/11/20 02:05:56;;;;;;;8.13;4.93;;;;;;;;;;4990628;28;20460;-85
2023/11/20 02:08:23;;;;;;;8.93;5.20;;;;;;;;;;4987588;28;20511;-86
2023/11/20 02:10:49;;;;;;;5.93;4.50;;;;;;;;;;4990970;28;20535;-86
2023/11/20 02:13:16;;;;;;;7.53;4.40;;;;;;;;;;4995859;28;20491;-85
2023/11/20 02:15:44;;;;;;;5.20;4.70;;;;;;;;;;4986164;28;20599;-86
2023/11/20 02:18:25;;;;;;;5.30;4.80;;;;;;;;;;4992625;28;20500;-85
2023/11/20 02:20:51;;;;;;;4.57;4.17;;;;;;;;;;4993849;28;20742;-87
2023/11/20 02:23:17;;;;;;;7.70;5.17;;;;;;;;;;4989288;28;20496;-86
2023/11/20 02:25:44;;;;;;;6.57;5.30;;;;;;;;;;4987226;28;20464;-87
2023/11/20 02:28:17;;;;;;;6.50;5.83;;;;;;;;;;4986837;28;20464;-86
2023/11/20 02:30:45;;;;;;;6.80;6.10;;;;;;;;;;4987351;28;20464;-85
2023/11/20 02:33:12;;;;;;;7.53;5.50;;;;;;;;;;4992539;28;20495;-85
2023/11/20 02:35:38;;;;;;;7.77;6.30;;;;;;;;;;5004697;28;21027;-85
2023/11/20 02:38:05;;;;;;;6.83;6.17;;;;;;;;;;4993295;28;20524;-85
2023/11/20 02:40:31;;;;;;;6.40;5.80;;;;;;;;;;4994755;28;20495;-86
2023/11/20 02:42:57;;;;;;;17.37;6.90;;;;;;;;;;4993210;28;20464;-86
2023/11/20 02:45:24;;;;;;;8.47;6.00;;;;;;;;;;4987445;28;20464;-85
2023/11/20 02:47:52;;;;;;;9.73;7.07;;;;;;;;;;4991330;28;20484;-84
2023/11/20 02:50:18;;;;;;;7.17;5.37;;;;;;;;;;4999269;28;20448;-85
2023/11/20 02:52:45;;;;;;;7.37;6.10;;;;;;;;;;4986966;28;20515;-85
2023/11/20 02:55:12;;;;;;;11.13;5.00;;;;;;;;;;4989268;28;20492;-85
2023/11/20 02:57:38;;;;;;;7.90;5.30;;;;;;;;;;4987759;28;20495;-85
2023/11/20 03:00:06;;;;;;;7.30;5.90;;;;;;;;;;4997107;28;20808;-85
2023/11/20 03:02:33;;;;;;;8.40;6.00;;;;;;;;;;4988294;28;20464;-85
2023/11/20 03:05:00;;;;;;;10.80;6.83;;;;;;;;;;4998881;28;20498;-85
2023/11/20 03:07:27;;;;;;;7.03;5.67;;;;;;;;;;4995982;28;21075;-84
2023/11/20 03:09:53;;;;;;;8.40;6.47;;;;;;;;;;4983895;28;20528;-85
2023/11/20 03:12:19;;;;;;;7.70;5.40;;;;;;;;;;4986595;28;20943;-85
2023/11/20 03:14:46;;;;;;;8.87;5.63;;;;;;;;;;4988415;28;20599;-85
2023/11/20 03:17:12;;;;;;;9.03;5.83;;;;;;;;;;4993850;28;20528;-85
2023/11/20 03:19:39;;;;;;;7.77;5.87;;;;;;;;;;4984391;28;20484;-85
2023/11/20 03:22:07;;;;;;;6.27;5.20;;;;;;;;;;4985922;28;20464;-84
2023/11/20 03:24:34;;;;;;;11.73;6.20;;;;;;;;;;4986061;28;20470;-85
2023/11/20 03:27:00;;;;;;;7.13;5.80;;;;;;;;;;4984334;28;20527;-86
2023/11/20 03:29:27;;;;;;;10.10;6.70;;;;;;;;;;4985154;28;20468;-85
2023/11/20 03:31:53;;;;;;;10.73;5.83;;;;;;;;;;4993773;28;20447;-86
2023/11/20 03:34:20;;;;;;;7.97;5.53;;;;;;;;;;4987752;28;20479;-85
2023/11/20 03:36:46;;;;;;;8.20;6.77;;;;;;;;;;4984337;28;20512;-85
2023/11/20 03:39:14;;;;;;;8.97;5.80;;;;;;;;;;4989457;28;20500;-85
2023/11/20 03:41:40;;;;;;;7.10;5.93;;;;;;;;;;4987342;28;20507;-85
2023/11/20 03:44:07;;;;;;;8.70;5.43;;;;;;;;;;4982789;28;20539;-86
2023/11/20 03:46:33;;;;;;;10.53;6.53;;;;;;;;;;4988238;28;20563;-86
2023/11/20 03:49:01;;;;;;;7.60;5.83;;;;;;;;;;4987329;28;20905;-85
2023/11/20 03:51:27;;;;;;;8.80;6.33;;;;;;;;;;4993415;28;20490;-85
2023/11/20 03:53:53;;;;;;;8.43;6.83;;;;;;;;;;4982330;28;20463;-86
2023/11/20 03:56:21;;;;;;;10.93;6.13;;;;;;;;;;4985727;28;20512;-87
2023/11/20 03:58:47;;;;;;;8.20;6.07;;;;;;;;;;4982887;28;20528;-85
2023/11/20 04:01:14;;;;;;;10.00;6.90;;;;;;;;;;4988891;28;20559;-86
2023/11/20 04:03:41;;;;;;;8.63;7.70;;;;;;;;;;4992735;28;20459;-85
2023/11/20 04:06:08;;;;;;;10.77;6.80;;;;;;;;;;4988999;28;20476;-87
2023/11/20 04:08:34;;;;;;;10.47;6.30;;;;;;;;;;4994086;28;20456;-87
2023/11/20 04:11:02;;;;;;;11.83;6.30;;;;;;;;;;4994150;28;20556;-88
2023/11/20 04:13:29;;;;;;;10.10;6.43;;;;;;;;;;4989389;28;20464;-88
2023/11/20 04:15:56;;;;;;;9.80;6.80;;;;;;;;;;4992613;28;20578;-87
2023/11/20 04:18:22;;;;;;;13.17;7.90;;;;;;;;;;4995072;28;20467;-87
2023/11/20 04:20:49;;;;;;;10.23;7.30;;;;;;;;;;4993270;28;20551;-87
2023/11/20 04:23:17;;;;;;;10.60;6.83;;;;;;;;;;5003939;28;20464;-87
2023/11/20 04:25:44;;;;;;;14.80;7.60;;;;;;;;;;4995685;28;20560;-87
2023/11/20 04:28:10;;;;;;;12.70;6.70;;;;;;;;;;4995601;28;20494;-87
2023/11/20 04:30:38;;;;;;;12.23;6.47;;;;;;;;;;4992805;28;20547;-86
2023/11/20 04:33:05;;;;;;;10.90;6.70;;;;;;;;;;4989539;28;20547;-87
2023/11/20 04:35:31;;;;;;;8.73;6.50;;;;;;;;;;4991452;28;21013;-86
2023/11/20 04:37:57;;;;;;;8.23;6.80;;;;;;;;;;4996243;28;20518;-87
2023/11/20 04:40:24;;;;;;;17.03;6.60;;;;;;;;;;4991610;28;20456;-86
2023/11/20 04:42:50;;;;;;;12.50;6.53;;;;;;;;;;4987355;28;20879;-85
2023/11/20 04:45:17;;;;;;;10.43;6.80;;;;;;;;;;4993735;28;20451;-86
2023/11/20 04:47:45;;;;;;;12.23;6.90;;;;;;;;;;4994966;28;20461;-85
2023/11/20 04:50:11;;;;;;;10.67;6.00;;;;;;;;;;4998536;28;20536;-86
2023/11/20 04:52:37;;;;;;;11.03;6.70;;;;;;;;;;4989536;28;20456;-85
2023/11/20 04:55:04;;;;;;;11.43;5.93;;;;;;;;;;4990053;28;20534;-85
2023/11/20 04:57:31;;;;;;;10.40;6.53;;;;;;;;;;4989303;28;20524;-85
2023/11/20 04:59:57;;;;;;;12.83;5.23;;;;;;;;;;4985069;28;20476;-85
2023/11/20 05:02:25;;;;;;;7.93;6.10;;;;;;;;;;4992814;28;20464;-84
2023/11/20 05:04:52;;;;;;;11.27;5.97;;;;;;;;;;4993374;28;20460;-85
2023/11/20 05:07:19;;;;;;;9.87;6.10;;;;;;;;;;4993320;28;20476;-85
2023/11/20 05:09:45;;;;;;;13.47;6.00;;;;;;;;;;4993574;28;21060;-84
2023/11/20 05:12:12;;;;;;;9.80;5.73;;;;;;;;;;4987206;28;20555;-84
2023/11/20 05:14:38;;;;;;;12.63;5.60;;;;;;;;;;4997171;28;20468;-85
2023/11/20 05:17:05;;;;;;;11.30;5.93;;;;;;;;;;4993809;28;20526;-85
2023/11/20 05:19:32;;;;;;;7.90;5.47;;;;;;;;;;4988633;28;20448;-85
2023/11/20 05:21:59;;;;;;;13.80;5.97;;;;;;;;;;5000728;28;20538;-85
2023/11/20 05:24:26;;;;;;;11.30;5.73;;;;;;;;;;4984328;28;20495;-85
2023/11/20 05:26:52;;;;;;;13.13;6.50;;;;;;;;;;4991743;28;20514;-84
2023/11/20 05:29:18;;;;;;;12.20;6.57;;;;;;;;;;4995498;28;20452;-85
2023/11/20 05:31:45;;;;;;;12.20;6.13;;;;;;;;;;4993793;28;20533;-85
2023/11/20 05:34:11;;;;;;;11.97;5.77;;;;;;;;;;4991757;28;20981;-84
2023/11/20 05:36:38;;;;;;;15.37;6.87;;;;;;;;;;4989921;28;20503;-85
2023/11/20 05:39:06;;;;;;;11.17;5.87;;;;;;;;;;4984134;28;20856;-84
2023/11/20 05:41:32;;;;;;;12.53;6.20;;;;;;;;;;4996490;28;20465;-85
2023/11/20 05:43:59;;;;;;;9.60;6.23;;;;;;;;;;5000978;28;20468;-85
2023/11/20 05:46:26;;;;;;;16.50;5.70;;;;;;;;;;4991890;28;20476;-85
2023/11/20 05:48:52;;;;;;;12.57;6.07;;;;;;;;;;4985611;28;20458;-85
2023/11/20 05:51:19;;;;;;;10.93;5.30;;;;;;;;;;4990799;28;20527;-84
2023/11/20 05:53:45;;;;;;;16.03;5.63;;;;;;;;;;4988539;28;20467;-84
2023/11/20 05:56:13;;;;;;;14.27;6.47;;;;;;;;;;4996137;28;21075;-84
2023/11/20 05:58:40;;;;;;;9.23;5.40;;;;;;;;;;4998150;28;20450;-84
2023/11/20 06:01:06;;;;;;;10.57;4.83;;;;;;;;;;4998394;28;20452;-84
2023/11/20 06:03:33;;;;;;;10.10;5.70;;;;;;;;;;4997392;28;20521;-82
2023/11/20 06:05:59;;;;;;;9.27;4.80;;;;;;;;;;4990458;28;20461;-82
2023/11/20 06:08:26;;;;;;;9.77;5.07;;;;;;;;;;4990425;28;20512;-82
2023/11/20 06:10:53;;;;;;;12.10;6.23;;;;;;;;;;4992392;28;20453;-82
2023/11/20 06:13:20;;;;;;;10.83;5.23;;;;;;;;;;4986258;28;20466;-82
2023/11/20 06:15:47;;;;;;;11.23;4.63;;;;;;;;;;4982551;28;20528;-81
2023/11/20 06:18:13;;;;;;;10.70;5.70;;;;;;;;;;4996452;28;20457;-81
2023/11/20 06:20:40;;;;;;;10.40;4.10;;;;;;;;;;4983333;28;20484;-82
2023/11/20 06:23:08;;;;;;;11.10;4.40;;;;;;;;;;4989369;28;20470;-83
2023/11/20 06:25:34;;;;;;;11.50;4.90;;;;;;;;;;4996383;28;20455;-80
2023/11/20 06:28:01;;;;;;;8.60;5.60;;;;;;;;;;4990785;28;20483;-80
2023/11/20 06:30:29;;;;;;;9.10;4.67;;;;;;;;;;4994121;28;20453;-80
2023/11/20 06:32:55;;;;;;;7.50;3.97;;;;;;;;;;4982039;28;20461;-80
2023/11/20 06:35:24;;;;;;;8.80;4.93;;;;;;;;;;4996071;28;20518;-81
2023/11/20 06:37:50;;;;;;;8.03;4.73;;;;;;;;;;4988273;28;20543;-82
2023/11/20 06:40:17;;;;;;;9.83;5.10;;;;;;;;;;4994926;28;20624;-80
2023/11/20 06:42:44;;;;;;;11.97;5.20;;;;;;;;;;4988410;28;20496;-81
2023/11/20 06:45:11;;;;;;;7.07;4.20;;;;;;;;;;4988550;28;20502;-80
2023/11/20 06:47:38;;;;;;;5.83;4.77;;;;;;;;;;4984939;28;20459;-79
2023/11/20 06:50:06;;;;;;;10.73;4.00;;;;;;;;;;4985924;28;20551;-80
2023/11/20 06:52:35;;;;;;;10.73;3.80;;;;;;;;;;4989675;28;20456;-80
2023/11/20 06:55:02;;;;;;;7.30;4.47;;;;;;;;;;4988012;28;20491;-79
2023/11/20 06:57:28;;;;;;;8.63;5.23;;;;;;;;;;4989963;28;20566;-80
2023/11/20 06:59:54;;;;;;;10.33;4.70;;;;;;;;;;4988094;28;20515;-80
2023/11/20 07:02:23;;;;;;;8.70;4.63;;;;;;;;;;4991981;28;20539;-80
2023/11/20 07:04:51;;;;;;;10.67;5.53;;;;;;;;;;4988104;28;20492;-79
2023/11/20 07:07:17;;;;;;;9.50;5.47;;;;;;;;;;4985705;28;20506;-79
2023/11/20 07:09:44;;;;;;;14.77;5.13;;;;;;;;;;4985557;28;20568;-78
2023/11/20 07:12:11;;;;;;;7.67;4.37;;;;;;;;;;4985742;28;20460;-79
2023/11/20 07:14:38;;;;;;;15.33;6.33;;;;;;;;;;4995867;28;20480;-79
2023/11/20 07:17:05;;;;;;;16.73;5.13;;;;;;;;;;4989769;28;20500;-79
2023/11/20 07:19:31;;;;;;;13.10;5.30;;;;;;;;;;4988024;28;21163;-79
2023/11/20 07:21:59;;;;;;;17.10;5.70;;;;;;;;;;4985892;28;20492;-80
2023/11/20 07:24:27;;;;;;;17.97;5.80;;;;;;;;;;4984427;28;20488;-79
2023/11/20 07:26:54;;;;;;;19.63;6.97;;;;;;;;;;4989210;28;20475;-79
2023/11/20 07:29:23;;;;;;;12.73;5.87;;;;;;;;;;4988082;28;20874;-79
2023/11/20 07:31:49;;;;;;;19.83;9.70;;;;;;;;;;4990526;28;20535;-78
2023/11/20 07:34:18;;;;;;;10.17;6.40;;;;;;;;;;4992055;28;20491;-77
2023/11/20 07:36:44;;;;;;;17.03;6.80;;;;;;;;;;5000176;28;20475;-78
2023/11/20 07:39:12;;;;;;;11.00;6.73;;;;;;;;;;4994317;28;20532;-77
2023/11/20 07:41:39;;;;;;;18.77;7.00;;;;;;;;;;4987570;28;20765;-78
2023/11/20 07:44:05;;;;;;;14.60;6.07;;;;;;;;;;4995853;28;20526;-78
2023/11/20 07:46:32;;;;;;;10.30;5.93;;;;;;;;;;4980756;28;20457;-78
2023/11/20 07:48:58;;;;;;;15.07;5.90;;;;;;;;;;4989444;28;20443;-78
2023/11/20 07:51:24;;;;;;;14.40;6.80;;;;;;;;;;4997140;28;20976;-78
2023/11/20 07:53:51;;;;;;;18.60;5.60;;;;;;;;;;4994820;28;20489;-78
2023/11/20 07:56:19;;;;;;;12.10;6.57;;;;;;;;;;4984018;28;20755;-78
2023/11/20 07:58:45;;;;;;;16.70;6.30;;;;;;;;;;4987074;28;20488;-79
2023/11/20 08:01:12;;;;;;;13.90;5.10;;;;;;;;;;4989482;28;20468;-78
2023/11/20 08:03:38;;;;;;;14.73;5.73;;;;;;;;;;4990791;28;20459;-79
2023/11/20 08:06:05;;;;;;;15.90;6.33;;;;;;;;;;4983073;28;20460;-78
2023/11/20 08:08:31;;;;;;;11.60;5.30;;;;;;;;;;4982861;28;20460;-78
2023/11/20 08:10:58;;;;;;;14.17;5.20;;;;;;;;;;4980759;28;20480;-78
2023/11/20 08:13:26;;;;;;;19.60;5.30;;;;;;;;;;4983546;28;20518;-78
2023/11/20 08:15:52;;;;;;;13.33;5.57;;;;;;;;;;4989107;28;20571;-78
2023/11/20 08:18:18;;;;;;;13.60;7.00;;;;;;;;;;4994164;28;20453;-78
2023/11/20 08:20:45;;;;;;;10.67;4.70;;;;;;;;;;4982759;28;20544;-78
2023/11/20 08:23:11;;;;;;;12.90;5.40;;;;;;;;;;5006642;28;20467;-78
2023/11/20 08:25:37;;;;;;;12.40;4.93;;;;;;;;;;4982080;28;20465;-76
2023/11/20 08:28:04;;;;;;;22.43;5.43;;;;;;;;;;4986891;28;20453;-75
2023/11/20 08:30:34;;;;;;;12.33;4.40;;;;;;;;;;4987399;28;20460;-77
2023/11/20 08:33:00;;;;;;;13.50;5.40;;;;;;;;;;4984186;28;20484;-78
2023/11/20 08:35:26;;;;;;;15.40;4.57;;;;;;;;;;4983100;28;20481;-78
2023/11/20 08:37:54;;;;;;;12.67;4.33;;;;;;;;;;4996148;28;20483;-78
2023/11/20 08:40:21;;;;;;;10.70;4.60;;;;;;;;;;4991192;28;20451;-77
2023/11/20 09:20:12;;;;;;;21.67;6.23;;;;;;;;;;2922228;23;20500;-85
2023/11/20 09:22:38;;;;;;;19.33;6.20;;;;;;;;;;4997502;28;20480;-84
2023/11/20 09:25:05;;;;;;;11.73;5.80;;;;;;;;;;4993869;28;20465;-84
2023/11/20 09:27:32;;;;;;;14.77;5.60;;;;;;;;;;4992807;28;20449;-84
2023/11/20 09:29:59;;;;;;;12.70;6.43;;;;;;;;;;4984731;28;20484;-85
2023/11/20 09:32:25;;;;;;;20.53;6.03;;;;;;;;;;4993307;28;20484;-85
2023/11/20 09:34:51;;;;;;;15.07;5.20;;;;;;;;;;4993236;28;20989;-85
2023/11/20 09:37:19;;;;;;;17.83;6.10;;;;;;;;;;4992110;28;20504;-85
2023/11/20 09:39:46;;;;;;;12.27;5.50;;;;;;;;;;4992285;28;20900;-84
2023/11/20 09:42:14;;;;;;;10.40;5.73;;;;;;;;;;4993022;28;20467;-84
2023/11/20 09:44:41;;;;;;;12.43;5.90;;;;;;;;;;4993285;28;20452;-83
2023/11/20 09:47:10;;;;;;;11.83;5.50;;;;;;;;;;4998220;28;20459;-84
2023/11/20 09:49:37;;;;;;;11.27;6.03;;;;;;;;;;4992098;28;20521;-85
2023/11/20 09:52:06;;;;;;;11.40;5.10;;;;;;;;;;4992623;28;20472;-83
2023/11/20 09:54:35;;;;;;;19.27;6.90;;;;;;;;;;4990791;28;20523;-84
2023/11/20 09:57:01;;;;;;;10.03;7.10;;;;;;;;;;4988857;28;20489;-85
2023/11/20 09:59:28;;;;;;;9.17;5.60;;;;;;;;;;4989441;28;20476;-86
2023/11/20 10:01:54;;;;;;;14.03;6.17;;;;;;;;;;4994906;28;20911;-86
2023/11/20 10:04:23;;;;;;;13.57;7.40;;;;;;;;;;4985898;28;20515;-86
2023/11/20 10:06:51;;;;;;;12.67;4.93;;;;;;;;;;4988923;28;20476;-83
2023/11/20 10:09:17;;;;;;;10.83;5.50;;;;;;;;;;4995284;28;20508;-83
2023/11/20 10:11:47;;;;;;;8.40;5.00;;;;;;;;;;4993069;28;20480;-83
2023/11/20 10:14:19;;;;;;;10.40;5.80;;;;;;;;;;4994505;28;20821;-83
2023/11/20 10:16:46;;;;;;;22.73;6.73;;;;;;;;;;4990571;28;20516;-83
2023/11/20 10:19:14;;;;;;;12.13;5.87;;;;;;;;;;4990218;28;20473;-84
2023/11/20 10:21:40;;;;;;;10.00;5.77;;;;;;;;;;4991180;28;21032;-84
2023/11/20 10:24:09;;;;;;;9.67;5.20;;;;;;;;;;4989827;28;20459;-82
2023/11/20 10:26:35;;;;;;;10.87;5.37;;;;;;;;;;4992475;28;20460;-83
2023/11/20 10:29:09;;;;;;;9.67;5.40;;;;;;;;;;4987841;28;20527;-83
2023/11/20 10:31:42;;;;;;;8.10;5.50;;;;;;;;;;4985229;28;20460;-83
2023/11/20 10:34:09;;;;;;;14.67;5.87;;;;;;;;;;4988024;28;20476;-84
2023/11/20 10:36:36;;;;;;;15.10;5.23;;;;;;;;;;4989568;28;20495;-84
2023/11/20 10:39:03;;;;;;;13.27;5.30;;;;;;;;;;4987811;28;20535;-83
2023/11/20 10:41:30;;;;;;;13.27;4.67;;;;;;;;;;4994123;28;21043;-83
2023/11/20 10:43:56;;;;;;;12.23;5.00;;;;;;;;;;4989929;28;20452;-84
2023/11/20 10:46:25;;;;;;;12.10;5.77;;;;;;;;;;4989773;28;20526;-84
2023/11/20 10:48:52;;;;;;;11.60;5.67;;;;;;;;;;4986478;28;20523;-83
2023/11/20 10:51:20;;;;;;;15.70;5.30;;;;;;;;;;4992978;28;20492;-84
2023/11/20 10:53:51;;;;;;;12.47;5.27;;;;;;;;;;4990349;28;20567;-84
2023/11/20 10:56:18;;;;;;;8.23;5.23;;;;;;;;;;4988678;28;20481;-84
2023/11/20 10:58:46;;;;;;;13.70;6.60;;;;;;;;;;4991452;28;20484;-83
2023/11/20 11:01:13;;;;;;;11.80;4.90;;;;;;;;;;4990469;28;20447;-83
2023/11/20 11:03:42;;;;;;;8.30;5.33;;;;;;;;;;4994078;28;20460;-84
2023/11/20 11:06:10;;;;;;;14.60;6.60;;;;;;;;;;4994263;28;20456;-83
2023/11/20 11:08:38;;;;;;;12.77;6.30;;;;;;;;;;4990288;28;20459;-84
2023/11/20 11:11:05;;;;;;;9.07;5.97;;;;;;;;;;4989796;28;20459;-83
2023/11/20 11:13:33;;;;;;;11.93;5.47;;;;;;;;;;4991759;28;20477;-83
2023/11/20 11:16:00;;;;;;;10.23;5.00;;;;;;;;;;4990947;28;20459;-84
2023/11/20 11:18:27;;;;;;;14.67;6.40;;;;;;;;;;4989457;28;20503;-83
2023/11/20 11:20:56;;;;;;;15.47;5.70;;;;;;;;;;4991266;28;20507;-84
2023/11/20 11:23:25;;;;;;;16.10;4.87;;;;;;;;;;4988829;28;20471;-83
2023/11/20 11:25:57;;;;;;;10.93;4.87;;;;;;;;;;4992761;28;20464;-84
2023/11/20 11:28:24;;;;;;;15.50;6.20;;;;;;;;;;4985536;28;20448;-85
2023/11/20 11:30:51;;;;;;;14.60;5.23;;;;;;;;;;4985758;28;20480;-82
2023/11/20 11:33:30;;;;;;;13.33;5.20;;;;;;;;;;4990396;28;20476;-83
2023/11/20 11:36:20;;;;;;;9.40;4.67;;;;;;;;;;4993174;28;20575;-84
2023/11/20 11:38:51;;;;;;;12.33;5.73;;;;;;;;;;4991631;28;21271;-83
2023/11/20 11:41:24;;;;;;;9.53;5.53;;;;;;;;;;4991723;28;20459;-83
2023/11/20 11:43:53;;;;;;;8.50;5.20;;;;;;;;;;4986878;28;20548;-82
2023/11/20 11:46:20;;;;;;;9.27;5.10;;;;;;;;;;4988780;28;20472;-82
2023/11/20 11:48:46;;;;;;;10.83;5.70;;;;;;;;;;4986764;28;20459;-82
2023/11/20 11:51:20;;;;;;;10.93;7.50;;;;;;;;;;4990109;28;20499;-82
2023/11/20 11:54:02;;;;;;;15.20;6.37;;;;;;;;;;4988845;28;20467;-82
2023/11/20 11:56:29;;;;;;;11.93;6.00;;;;;;;;;;4982672;28;20452;-82
2023/11/20 11:58:56;;;;;;;8.17;5.70;;;;;;;;;;4989192;28;20479;-82
2023/11/20 12:01:23;;;;;;;15.37;5.47;;;;;;;;;;4991178;28;20448;-82
2023/11/20 12:03:51;;;;;;;11.50;6.33;;;;;;;;;;4987261;28;20514;-81
2023/11/20 12:06:18;;;;;;;6.70;6.10;;;;;;;;;;4988453;28;20460;-83
2023/11/20 12:08:49;;;;;;;9.57;5.87;;;;;;;;;;4982550;28;20961;-83
2023/11/20 12:11:30;;;;;;;8.30;5.60;;;;;;;;;;4981931;28;20464;-83
2023/11/20 12:14:06;;;;;;;10.83;6.07;;;;;;;;;;4985248;28;20440;-82
2023/11/20 12:16:36;;;;;;;10.10;6.43;;;;;;;;;;4988129;28;20463;-82
2023/11/20 12:19:03;;;;;;;6.97;5.13;;;;;;;;;;4987815;28;20504;-80
2023/11/20 12:21:30;;;;;;;11.63;5.63;;;;;;;;;;4983611;28;20483;-80
2023/11/20 12:23:58;;;;;;;6.03;4.90;;;;;;;;;;4993204;28;21010;-80
2023/11/20 12:26:25;;;;;;;9.03;5.00;;;;;;;;;;4983188;28;20495;-80
2023/11/20 12:28:52;;;;;;;11.03;5.60;;;;;;;;;;4986383;28;20441;-80
2023/11/20 12:31:19;;;;;;;10.70;5.40;;;;;;;;;;4990602;28;20463;-80
2023/11/20 12:33:46;;;;;;;11.10;5.27;;;;;;;;;;4995027;28;20460;-82
2023/11/20 12:36:13;;;;;;;9.13;5.53;;;;;;;;;;4990927;28;20456;-82
2023/11/20 12:38:40;;;;;;;8.67;4.40;;;;;;;;;;4988240;28;20494;-81
2023/11/20 12:41:10;;;;;;;9.70;5.60;;;;;;;;;;4983615;28;20491;-81
2023/11/20 12:43:37;;;;;;;13.97;5.47;;;;;;;;;;4985908;28;20456;-81
2023/11/20 12:46:04;;;;;;;7.27;5.10;;;;;;;;;;4989412;28;20466;-81
2023/11/20 12:48:30;;;;;;;11.17;5.43;;;;;;;;;;4996462;28;20468;-81
2023/11/20 12:50:57;;;;;;;12.73;6.00;;;;;;;;;;4987470;28;20511;-80
2023/11/20 12:53:24;;;;;;;12.77;6.07;;;;;;;;;;5004036;28;20487;-80
2023/11/20 12:55:51;;;;;;;17.30;5.87;;;;;;;;;;4999336;28;20498;-82
2023/11/20 12:58:18;;;;;;;8.87;5.80;;;;;;;;;;4991452;28;20488;-82
2023/11/20 13:00:45;;;;;;;9.00;5.77;;;;;;;;;;4995788;28;20483;-81
2023/11/20 13:03:13;;;;;;;11.97;5.70;;;;;;;;;;4990947;28;21056;-81
2023/11/20 13:05:43;;;;;;;8.13;4.97;;;;;;;;;;4995746;28;20492;-81
2023/11/20 13:08:12;;;;;;;9.90;4.67;;;;;;;;;;4984773;28;20481;-81
2023/11/20 13:10:38;;;;;;;11.73;6.67;;;;;;;;;;4984290;28;20468;-81
2023/11/20 13:13:05;;;;;;;13.60;6.60;;;;;;;;;;4987604;28;20492;-81
2023/11/20 13:15:34;;;;;;;6.80;5.53;;;;;;;;;;4984608;28;20460;-81
2023/11/20 13:18:01;;;;;;;12.40;6.73;;;;;;;;;;5006763;28;20521;-81
2023/11/20 13:20:41;;;;;;;7.93;6.17;;;;;;;;;;4994783;28;20496;-81
2023/11/20 13:23:15;;;;;;;14.60;6.77;;;;;;;;;;4991882;28;20964;-81
2023/11/20 13:25:42;;;;;;;13.03;6.40;;;;;;;;;;4984372;28;20459;-81
2023/11/20 13:28:09;;;;;;;11.77;5.70;;;;;;;;;;4997885;28;20459;-81
2023/11/20 13:30:52;;;;;;;9.47;5.20;;;;;;;;;;4993184;28;20503;-81
2023/11/20 13:33:19;;;;;;;10.73;5.30;;;;;;;;;;4987238;28;20456;-80
2023/11/20 13:35:46;;;;;;;9.10;4.70;;;;;;;;;;4993866;28;20476;-81
2023/11/20 13:38:12;;;;;;;10.17;5.10;;;;;;;;;;4986351;28;20516;-81
2023/11/20 13:40:38;;;;;;;11.50;5.70;;;;;;;;;;4992614;28;20483;-81
2023/11/20 13:43:05;;;;;;;11.33;6.20;;;;;;;;;;4995948;28;20495;-81
2023/11/20 13:45:32;;;;;;;13.53;6.70;;;;;;;;;;4987818;28;20483;-80
2023/11/20 13:47:59;;;;;;;9.10;6.53;;;;;;;;;;5002374;28;20440;-81
2023/11/20 13:50:26;;;;;;;8.93;7.23;;;;;;;;;;4986872;28;20499;-81
2023/11/20 13:52:53;;;;;;;10.27;6.17;;;;;;;;;;4997354;28;20447;-81
2023/11/20 13:55:19;;;;;;;8.93;6.73;;;;;;;;;;4991207;28;20468;-81
2023/11/20 13:57:45;;;;;;;8.80;6.73;;;;;;;;;;4990197;28;20511;-81
2023/11/20 14:00:18;;;;;;;18.13;5.00;;;;;;;;;;4990825;28;20488;-81
2023/11/20 14:02:46;;;;;;;11.00;6.43;;;;;;;;;;4990210;28;20482;-81
2023/11/20 14:05:15;;;;;;;8.90;4.63;;;;;;;;;;4985363;28;20471;-81
2023/11/20 14:07:41;;;;;;;9.13;5.20;;;;;;;;;;4992451;28;20490;-81
2023/11/20 14:10:09;;;;;;;8.83;5.13;;;;;;;;;;4994761;28;20459;-82
2023/11/20 14:12:37;;;;;;;11.93;5.30;;;;;;;;;;4989986;28;20887;-82
2023/11/20 14:15:04;;;;;;;9.30;5.40;;;;;;;;;;4987484;28;20465;-82
2023/11/20 14:17:30;;;;;;;8.27;4.80;;;;;;;;;;4991656;28;20459;-80
2023/11/20 14:19:57;;;;;;;13.73;5.43;;;;;;;;;;4992659;28;20491;-82
2023/11/20 14:22:24;;;;;;;6.20;4.57;;;;;;;;;;4998130;28;20467;-80
2023/11/20 14:24:51;;;;;;;9.20;5.70;;;;;;;;;;4996022;28;20902;-81
2023/11/20 14:27:18;;;;;;;7.60;4.90;;;;;;;;;;4993436;28;20459;-82
2023/11/20 14:29:44;;;;;;;10.50;4.97;;;;;;;;;;4988391;28;20551;-81
2023/11/20 14:32:11;;;;;;;13.60;6.43;;;;;;;;;;4988053;28;20488;-81
2023/11/20 14:34:37;;;;;;;7.63;4.60;;;;;;;;;;4987992;28;20520;-81
2023/11/20 14:37:04;;;;;;;9.13;4.93;;;;;;;;;;4986470;28;20511;-83
2023/11/20 14:39:32;;;;;;;11.20;5.50;;;;;;;;;;4983924;28;20511;-83
2023/11/20 14:41:58;;;;;;;9.87;5.60;;;;;;;;;;4991242;28;20523;-83
2023/11/20 14:44:26;;;;;;;18.23;5.13;;;;;;;;;;4992682;28;20468;-83
2023/11/20 14:46:52;;;;;;;9.47;5.20;;;;;;;;;;4985590;28;20464;-83
2023/11/20 14:49:19;;;;;;;7.87;4.67;;;;;;;;;;4988268;28;20474;-84
2023/11/20 14:51:45;;;;;;;8.40;5.07;;;;;;;;;;4991096;28;20934;-84
2023/11/20 14:54:12;;;;;;;18.57;5.77;;;;;;;;;;4999511;28;20495;-83
2023/11/20 14:56:40;;;;;;;9.60;4.90;;;;;;;;;;4993241;28;20464;-83
2023/11/20 14:59:06;;;;;;;8.67;5.07;;;;;;;;;;4994027;28;20505;-83
2023/11/20 15:01:33;;;;;;;6.97;5.40;;;;;;;;;;5002085;28;20463;-84
2023/11/20 15:03:59;;;;;;;12.73;6.07;;;;;;;;;;4998865;28;20495;-83
2023/11/20 15:06:26;;;;;;;8.70;5.57;;;;;;;;;;4996166;28;20465;-84
2023/11/20 15:08:52;;;;;;;6.57;4.40;;;;;;;;;;5004000;28;20448;-83
2023/11/20 15:11:19;;;;;;;9.33;4.20;;;;;;;;;;4998845;28;20543;-83
2023/11/20 15:13:47;;;;;;;8.30;4.67;;;;;;;;;;4997594;28;20510;-84